Time;durP1;ratioP1;P1;durP2;ratioP2;P2;SDS_P1;SDS_P2;PMS_P1;PMS_P2;Temp;Humidity;BMP_temperature;BMP_pressure;BME280_temperature;BME280_humidity;BME280_pressure;Samples;Min_cycle;Max_cycle;Signal;HPM_P1;HPM_P2
2022/11/01 00:02:08;;;;;;;0.60;0.40;;;17.60;99.90;;;;;;5051116;28;20438;-77
2022/11/01 00:04:35;;;;;;;1.13;0.93;;;17.70;99.90;;;;;;5050881;28;20441;-75
2022/11/01 00:07:02;;;;;;;2.97;2.77;;;17.70;99.90;;;;;;5054310;28;20548;-75
2022/11/01 00:09:28;;;;;;;2.10;1.07;;;17.60;99.90;;;;;;5055313;28;20431;-76
2022/11/01 00:11:57;;;;;;;0.50;0.40;;;17.60;99.90;;;;;;5055023;28;20828;-77
2022/11/01 00:14:24;;;;;;;1.30;0.93;;;17.60;99.90;;;;;;5055180;28;20536;-76
2022/11/01 00:16:51;;;;;;;0.80;0.50;;;17.60;99.90;;;;;;5054528;28;20834;-75
2022/11/01 00:19:18;;;;;;;0.50;0.40;;;17.50;99.90;;;;;;5055258;28;20479;-75
2022/11/01 00:21:45;;;;;;;5.60;1.00;;;17.50;99.90;;;;;;5054561;28;20931;-76
2022/11/01 00:24:12;;;;;;;1.00;0.80;;;17.40;99.90;;;;;;5054503;28;20494;-75
2022/11/01 00:26:39;;;;;;;1.73;0.70;;;17.40;99.90;;;;;;5054343;28;20456;-78
2022/11/01 00:29:07;;;;;;;1.53;1.00;;;17.20;99.90;;;;;;5054765;28;20519;-75
2022/11/01 00:31:34;;;;;;;0.50;0.43;;;17.10;99.90;;;;;;5054723;28;20437;-75
2022/11/01 00:34:02;;;;;;;0.70;0.50;;;16.90;99.90;;;;;;5054677;28;20433;-76
2022/11/01 00:36:29;;;;;;;0.50;0.40;;;16.80;99.90;;;;;;5054489;28;21008;-77
2022/11/01 00:38:56;;;;;;;0.50;0.40;;;16.60;99.90;;;;;;5054721;28;20840;-75
2022/11/01 00:41:23;;;;;;;1.13;1.03;;;16.50;99.90;;;;;;5054467;28;20459;-77
2022/11/01 00:43:49;;;;;;;0.50;0.40;;;16.40;99.90;;;;;;5054655;28;20429;-77
2022/11/01 00:46:18;;;;;;;1.57;1.47;;;16.30;99.90;;;;;;5054504;28;20457;-74
2022/11/01 00:48:45;;;;;;;1.00;0.90;;;16.20;99.90;;;;;;5054459;28;20851;-75
2022/11/01 00:51:11;;;;;;;0.90;0.90;;;16.10;99.90;;;;;;5054713;28;20432;-75
2022/11/01 00:53:38;;;;;;;0.50;0.40;;;16.00;99.90;;;;;;5054232;28;20432;-75
2022/11/01 00:56:06;;;;;;;0.50;0.40;;;15.90;99.90;;;;;;5053936;28;20459;-75
2022/11/01 00:58:34;;;;;;;0.93;0.93;;;15.90;99.90;;;;;;5053882;28;20439;-76
2022/11/01 01:01:01;;;;;;;0.50;0.40;;;15.90;99.90;;;;;;5054169;28;20437;-77
2022/11/01 01:03:29;;;;;;;0.70;0.60;;;15.80;99.90;;;;;;5054290;28;20433;-75
2022/11/01 01:05:57;;;;;;;0.60;0.53;;;15.80;99.90;;;;;;5053829;28;20452;-75
2022/11/01 01:08:24;;;;;;;0.50;0.37;;;15.80;99.90;;;;;;5053840;28;20930;-77
2022/11/01 01:10:51;;;;;;;0.50;0.40;;;15.80;99.90;;;;;;5054194;28;20540;-75
2022/11/01 01:13:18;;;;;;;1.00;1.00;;;15.80;99.90;;;;;;5053707;28;20436;-76
2022/11/01 01:15:45;;;;;;;0.93;0.73;;;15.80;99.90;;;;;;5053626;28;20429;-76
2022/11/01 01:18:13;;;;;;;0.77;0.70;;;15.80;99.90;;;;;;5054021;28;20417;-76
2022/11/01 01:20:41;;;;;;;0.57;0.50;;;15.80;99.90;;;;;;5053764;28;20473;-73
2022/11/01 01:23:07;;;;;;;1.10;0.60;;;15.90;99.90;;;;;;5053721;28;20443;-75
2022/11/01 01:25:34;;;;;;;1.23;1.13;;;15.90;99.90;;;;;;5053274;28;20926;-77
2022/11/01 01:28:01;;;;;;;10.77;5.27;;;16.10;99.90;;;;;;5053625;28;20441;-75
2022/11/01 01:30:28;;;;;;;0.60;0.60;;;16.10;99.90;;;;;;5053857;28;20439;-74
2022/11/01 01:32:55;;;;;;;0.50;0.30;;;16.10;99.90;;;;;;5053808;28;20798;-75
2022/11/01 01:35:22;;;;;;;2.20;1.60;;;16.10;99.90;;;;;;5053017;28;20437;-76
2022/11/01 01:37:50;;;;;;;0.73;0.73;;;16.20;99.90;;;;;;5053743;28;20449;-75
2022/11/01 01:40:17;;;;;;;0.60;0.60;;;16.20;99.90;;;;;;5053056;28;20469;-75
2022/11/01 01:42:45;;;;;;;0.50;0.40;;;16.30;99.90;;;;;;5053805;28;20431;-76
2022/11/01 01:45:35;;;;;;;0.60;0.40;;;16.40;99.90;;;;;;5052761;28;20480;-75
2022/11/01 01:48:12;;;;;;;0.80;0.80;;;16.50;99.90;;;;;;5053568;28;20533;-75
2022/11/01 01:50:44;;;;;;;2.70;2.53;;;16.60;99.90;;;;;;5053179;28;20409;-71
2022/11/01 01:53:17;;;;;;;0.50;0.40;;;16.70;99.90;;;;;;5052927;28;20417;-76
2022/11/01 01:55:50;;;;;;;1.83;1.27;;;16.70;99.90;;;;;;5052857;28;20527;-75
2022/11/01 01:58:19;;;;;;;0.70;0.70;;;16.80;99.90;;;;;;5053358;28;20422;-75
2022/11/01 02:00:46;;;;;;;0.93;0.63;;;16.90;99.90;;;;;;5053251;28;20480;-75
2022/11/01 02:03:14;;;;;;;1.37;1.27;;;16.90;99.90;;;;;;5052802;28;20516;-77
2022/11/01 02:05:47;;;;;;;0.80;0.80;;;17.00;99.90;;;;;;5052640;28;20438;-77
2022/11/01 02:08:15;;;;;;;0.67;0.67;;;17.00;99.90;;;;;;5052995;28;20441;-75
2022/11/01 02:10:43;;;;;;;0.60;0.60;;;17.10;99.90;;;;;;5052826;28;20814;-75
2022/11/01 02:13:13;;;;;;;0.50;0.33;;;17.10;99.90;;;;;;5053013;28;20437;-77
2022/11/01 02:15:54;;;;;;;0.50;0.40;;;17.20;99.90;;;;;;5052277;28;20794;-76
2022/11/01 02:18:34;;;;;;;1.33;1.23;;;17.10;99.90;;;;;;5052691;28;20456;-75
2022/11/01 02:21:38;;;;;;;0.50;0.40;;;17.00;99.90;;;;;;5052620;28;20572;-75
2022/11/01 02:24:38;;;;;;;0.93;0.93;;;17.10;99.90;;;;;;5052522;28;20445;-75
2022/11/01 02:27:13;;;;;;;2.00;1.90;;;17.10;99.90;;;;;;5052592;28;20460;-75
2022/11/01 02:30:06;;;;;;;0.50;0.37;;;17.10;99.90;;;;;;5052174;28;20452;-73
2022/11/01 02:32:40;;;;;;;0.50;0.40;;;17.10;99.90;;;;;;5049840;28;20818;-75
2022/11/01 02:35:15;;;;;;;0.67;0.47;;;17.00;99.90;;;;;;5052504;28;20505;-77
2022/11/01 02:37:50;;;;;;;0.60;0.43;;;17.10;99.90;;;;;;5051871;28;20460;-75
2022/11/01 02:40:27;;;;;;;1.23;0.80;;;17.10;99.90;;;;;;5052245;28;20531;-76
2022/11/01 02:43:01;;;;;;;0.50;0.40;;;17.00;99.90;;;;;;5052363;28;20425;-75
2022/11/01 02:45:34;;;;;;;5.30;5.00;;;17.00;99.90;;;;;;5051602;28;20444;-76
2022/11/01 02:48:04;;;;;;;4.00;0.83;;;16.90;99.90;;;;;;5052263;28;20425;-76
2022/11/01 02:50:34;;;;;;;0.60;0.50;;;16.90;99.90;;;;;;5052429;28;20433;-75
2022/11/01 02:53:02;;;;;;;0.73;0.60;;;16.80;99.90;;;;;;5052097;28;20441;-75
2022/11/01 02:55:32;;;;;;;3.33;3.03;;;16.70;99.90;;;;;;5051795;28;20527;-76
2022/11/01 02:58:01;;;;;;;2.43;2.23;;;16.70;99.90;;;;;;5052063;28;20425;-75
2022/11/01 03:00:30;;;;;;;1.07;0.97;;;16.70;99.90;;;;;;5051973;28;20588;-75
2022/11/01 03:03:06;;;;;;;0.80;0.80;;;16.60;99.90;;;;;;5052079;28;20441;-76
2022/11/01 03:05:41;;;;;;;0.50;0.30;;;16.60;99.90;;;;;;5051365;28;20428;-74
2022/11/01 03:08:11;;;;;;;0.50;0.30;;;16.50;99.90;;;;;;5051755;28;20449;-76
2022/11/01 03:10:49;;;;;;;0.60;0.40;;;16.50;99.90;;;;;;5051969;28;20437;-77
2022/11/01 03:13:28;;;;;;;0.60;0.60;;;16.50;99.90;;;;;;5052028;28;20447;-75
2022/11/01 03:16:05;;;;;;;1.27;0.67;;;16.40;99.90;;;;;;5050929;28;20469;-75
2022/11/01 03:18:37;;;;;;;0.60;0.60;;;16.40;99.90;;;;;;5051722;28;20530;-75
2022/11/01 03:21:14;;;;;;;1.33;1.23;;;16.40;99.90;;;;;;5051344;28;21116;-76
2022/11/01 03:23:45;;;;;;;0.60;0.40;;;16.30;99.90;;;;;;5051524;28;20441;-76
2022/11/01 03:26:17;;;;;;;0.60;0.60;;;16.30;99.90;;;;;;5051383;28;20457;-77
2022/11/01 03:28:49;;;;;;;0.93;0.80;;;16.30;99.90;;;;;;5051674;28;20524;-75
2022/11/01 03:31:20;;;;;;;0.70;0.70;;;16.30;99.90;;;;;;5051169;28;20903;-77
2022/11/01 03:33:52;;;;;;;0.93;0.67;;;16.30;99.90;;;;;;5051411;28;20794;-76
2022/11/01 03:36:21;;;;;;;1.47;0.70;;;16.20;99.90;;;;;;5051711;28;20552;-75
2022/11/01 03:38:54;;;;;;;0.60;0.50;;;16.20;99.90;;;;;;5051525;28;20814;-75
2022/11/01 03:41:25;;;;;;;0.83;0.67;;;16.20;99.90;;;;;;5050226;28;20984;-75
2022/11/01 03:43:52;;;;;;;1.73;0.57;;;16.20;99.90;;;;;;5050803;28;20427;-78
2022/11/01 03:46:20;;;;;;;0.90;0.73;;;16.20;99.90;;;;;;5051450;28;20460;-75
2022/11/01 03:48:48;;;;;;;0.50;0.30;;;16.20;99.90;;;;;;5051316;28;20447;-75
2022/11/01 03:51:15;;;;;;;2.00;1.50;;;16.20;99.90;;;;;;5051429;28;20429;-75
2022/11/01 03:53:42;;;;;;;1.27;1.17;;;16.20;99.90;;;;;;5050624;28;20959;-75
2022/11/01 03:56:09;;;;;;;0.50;0.40;;;16.20;99.90;;;;;;5050660;28;20489;-75
2022/11/01 03:58:42;;;;;;;0.50;0.40;;;16.20;99.90;;;;;;5051461;28;20446;-72
2022/11/01 04:01:10;;;;;;;0.60;0.60;;;16.20;99.90;;;;;;5050948;28;20559;-76
2022/11/01 04:03:37;;;;;;;0.50;0.30;;;16.20;99.90;;;;;;5051228;28;20445;-74
2022/11/01 04:06:06;;;;;;;0.90;0.70;;;16.20;99.90;;;;;;5046923;28;20481;-74
2022/11/01 04:08:33;;;;;;;1.73;0.93;;;16.20;99.90;;;;;;5039844;28;20445;-77
2022/11/01 04:11:00;;;;;;;1.63;0.77;;;16.20;99.90;;;;;;5031298;28;20525;-75
2022/11/01 04:13:27;;;;;;;1.00;0.80;;;16.20;99.90;;;;;;5031452;28;20560;-75
2022/11/01 04:21:26;;;;;;;0.60;0.50;;;16.20;99.90;;;;;;5050871;28;20491;-76
2022/11/01 04:23:53;;;;;;;0.60;0.40;;;16.30;99.90;;;;;;5047289;28;20842;-77
2022/11/01 04:26:21;;;;;;;0.93;0.80;;;16.30;99.90;;;;;;5042320;28;20826;-76
2022/11/01 04:28:56;;;;;;;1.17;0.60;;;16.30;99.90;;;;;;5050887;28;20437;-75
2022/11/01 04:31:24;;;;;;;1.50;1.40;;;16.30;99.90;;;;;;5050534;28;20436;-75
2022/11/01 04:33:51;;;;;;;0.60;0.50;;;16.30;99.90;;;;;;5050867;28;20443;-76
2022/11/01 04:36:17;;;;;;;1.10;1.00;;;16.30;99.90;;;;;;5051024;28;20544;-75
2022/11/01 04:38:48;;;;;;;1.10;0.77;;;16.30;99.90;;;;;;5050793;28;20527;-75
2022/11/01 04:41:17;;;;;;;0.80;0.80;;;16.30;99.90;;;;;;5050519;28;20473;-77
2022/11/01 04:43:44;;;;;;;0.50;0.40;;;16.20;99.90;;;;;;5050638;28;20441;-76
2022/11/01 04:46:10;;;;;;;1.43;1.13;;;16.20;99.90;;;;;;5050290;28;20548;-75
2022/11/01 04:48:37;;;;;;;6.53;1.27;;;16.20;99.90;;;;;;5050979;28;20450;-73
2022/11/01 04:51:04;;;;;;;1.70;1.23;;;16.20;99.90;;;;;;5050944;28;20433;-76
2022/11/01 04:53:31;;;;;;;1.77;0.67;;;16.20;99.90;;;;;;5054291;28;20527;-75
2022/11/01 04:56:00;;;;;;;0.97;0.87;;;16.10;99.90;;;;;;5053473;28;20539;-75
2022/11/01 04:58:27;;;;;;;1.17;1.13;;;16.20;99.90;;;;;;5054631;28;20437;-75
2022/11/01 05:00:54;;;;;;;1.60;1.50;;;16.20;99.90;;;;;;5054253;28;20567;-76
2022/11/01 05:03:21;;;;;;;1.73;1.23;;;16.20;99.90;;;;;;5054012;28;20499;-75
2022/11/01 05:05:48;;;;;;;0.70;0.70;;;16.20;99.90;;;;;;5053547;28;20437;-75
2022/11/01 05:08:15;;;;;;;1.17;0.80;;;16.30;99.90;;;;;;5048662;28;20429;-75
2022/11/01 05:10:43;;;;;;;1.07;0.83;;;16.30;99.90;;;;;;5044812;28;20426;-75
2022/11/01 05:13:12;;;;;;;0.90;0.90;;;16.30;99.90;;;;;;5043577;28;20430;-75
2022/11/01 05:15:39;;;;;;;1.33;1.23;;;16.40;99.90;;;;;;5042093;28;20513;-76
2022/11/01 05:18:06;;;;;;;0.60;0.43;;;16.40;99.90;;;;;;5044148;28;20898;-76
2022/11/01 05:20:33;;;;;;;1.60;0.70;;;16.40;99.90;;;;;;5044906;28;20476;-75
2022/11/01 05:23:00;;;;;;;1.00;1.00;;;16.40;99.90;;;;;;5038253;28;20450;-77
2022/11/01 05:25:28;;;;;;;0.77;0.70;;;16.50;99.90;;;;;;5046249;28;20931;-76
2022/11/01 05:27:59;;;;;;;1.20;0.70;;;16.50;99.90;;;;;;5053445;28;20547;-76
2022/11/01 05:30:27;;;;;;;2.90;2.20;;;16.50;99.90;;;;;;5053953;28;20495;-75
2022/11/01 05:32:59;;;;;;;1.50;1.40;;;16.50;99.90;;;;;;5053528;28;20443;-76
2022/11/01 05:35:27;;;;;;;12.80;1.53;;;16.50;99.90;;;;;;5053364;28;20923;-75
2022/11/01 05:37:54;;;;;;;1.70;0.80;;;16.50;99.90;;;;;;5053014;28;20457;-75
2022/11/01 05:40:21;;;;;;;3.20;0.90;;;16.50;99.90;;;;;;5053426;28;20479;-76
2022/11/01 05:42:48;;;;;;;2.83;1.73;;;16.50;99.90;;;;;;5053758;28;20524;-75
2022/11/01 05:45:15;;;;;;;0.80;0.80;;;16.50;99.90;;;;;;5053199;28;21014;-77
2022/11/01 05:47:43;;;;;;;2.60;0.80;;;16.50;99.90;;;;;;5053158;28;20464;-76
2022/11/01 05:50:12;;;;;;;0.77;0.67;;;16.50;99.90;;;;;;5053161;28;20513;-74
2022/11/01 05:52:39;;;;;;;1.13;0.90;;;16.50;99.90;;;;;;5053561;28;20536;-76
2022/11/01 05:55:08;;;;;;;2.20;0.80;;;16.50;99.90;;;;;;5052791;28;20815;-77
2022/11/01 05:57:35;;;;;;;3.37;0.70;;;16.50;99.90;;;;;;5052932;28;20476;-76
2022/11/01 06:00:03;;;;;;;1.93;1.17;;;16.50;99.90;;;;;;5052961;28;20495;-75
2022/11/01 06:02:31;;;;;;;1.00;0.90;;;16.50;99.90;;;;;;5052461;28;20437;-75
2022/11/01 06:05:00;;;;;;;0.60;0.50;;;16.50;99.90;;;;;;5052386;28;20784;-77
2022/11/01 06:07:27;;;;;;;0.50;0.50;;;16.50;99.90;;;;;;5053281;28;20457;-76
2022/11/01 06:09:54;;;;;;;0.60;0.43;;;16.50;99.90;;;;;;5053175;28;20858;-76
2022/11/01 06:12:23;;;;;;;0.80;0.60;;;16.50;99.90;;;;;;5052602;28;20445;-76
2022/11/01 06:14:50;;;;;;;0.70;0.60;;;16.50;99.90;;;;;;5052871;28;20452;-76
2022/11/01 06:17:17;;;;;;;1.23;0.50;;;16.50;99.90;;;;;;5052670;28;20469;-75
2022/11/01 06:19:44;;;;;;;0.60;0.50;;;16.40;99.90;;;;;;5053009;28;20802;-76
2022/11/01 06:22:13;;;;;;;2.40;1.77;;;16.40;99.90;;;;;;5052437;28;20503;-76
2022/11/01 06:24:39;;;;;;;0.50;0.40;;;16.30;99.90;;;;;;5052315;28;20473;-75
2022/11/01 06:27:06;;;;;;;1.27;1.17;;;16.20;99.90;;;;;;5052780;28;20985;-75
2022/11/01 06:29:33;;;;;;;1.60;0.77;;;16.20;99.90;;;;;;5052166;28;20480;-73
2022/11/01 06:32:03;;;;;;;1.23;0.80;;;16.10;99.90;;;;;;5052415;28;20502;-76
2022/11/01 06:34:30;;;;;;;0.50;0.40;;;16.00;99.90;;;;;;5052180;28;20492;-75
2022/11/01 06:36:57;;;;;;;1.47;0.93;;;16.00;99.90;;;;;;5052593;28;20465;-77
2022/11/01 06:39:25;;;;;;;0.60;0.50;;;15.90;99.90;;;;;;5052211;28;20483;-75
2022/11/01 06:41:52;;;;;;;2.53;0.50;;;15.80;99.90;;;;;;5052462;28;20649;-75
2022/11/01 06:44:19;;;;;;;7.40;0.70;;;15.80;99.90;;;;;;5051986;28;20469;-75
2022/11/01 06:46:46;;;;;;;0.70;0.60;;;15.70;99.90;;;;;;5051709;28;20535;-75
2022/11/01 06:49:13;;;;;;;0.50;0.40;;;15.60;99.90;;;;;;5052466;28;20484;-75
2022/11/01 06:51:40;;;;;;;4.50;1.80;;;15.50;99.90;;;;;;5052353;28;20445;-76
2022/11/01 06:54:07;;;;;;;0.73;0.60;;;15.50;99.90;;;;;;5051534;28;20491;-76
2022/11/01 06:56:35;;;;;;;0.60;0.50;;;15.40;99.90;;;;;;5052029;28;21063;-76
2022/11/01 06:59:02;;;;;;;0.60;0.50;;;15.40;99.90;;;;;;5052015;28;20882;-75
2022/11/01 07:01:29;;;;;;;0.90;0.60;;;15.30;99.90;;;;;;5051898;28;21017;-76
2022/11/01 07:03:56;;;;;;;4.93;0.50;;;15.30;99.90;;;;;;5051747;28;20499;-75
2022/11/01 07:06:27;;;;;;;1.70;0.80;;;15.20;99.90;;;;;;5051944;28;20990;-75
2022/11/01 07:08:54;;;;;;;0.77;0.40;;;15.10;99.90;;;;;;5051332;28;20990;-75
2022/11/01 07:11:21;;;;;;;0.50;0.40;;;15.10;99.90;;;;;;5051827;28;20847;-75
2022/11/01 07:13:50;;;;;;;0.50;0.40;;;15.00;99.90;;;;;;5051805;28;20447;-75
2022/11/01 07:16:17;;;;;;;0.53;0.50;;;14.90;99.90;;;;;;5051130;28;20468;-76
2022/11/01 07:18:44;;;;;;;0.50;0.40;;;14.90;99.90;;;;;;5052155;28;20484;-77
2022/11/01 07:21:20;;;;;;;2.00;0.90;;;14.80;99.90;;;;;;5051515;28;20494;-74
2022/11/01 07:23:47;;;;;;;0.60;0.50;;;14.80;99.90;;;;;;5051453;28;20471;-73
2022/11/01 07:26:15;;;;;;;0.83;0.83;;;14.70;99.90;;;;;;5051436;28;20812;-75
2022/11/01 07:28:42;;;;;;;0.50;0.40;;;14.70;99.90;;;;;;5051839;28;20838;-74
2022/11/01 07:31:10;;;;;;;0.97;0.67;;;14.60;99.90;;;;;;5051348;28;20939;-75
2022/11/01 07:33:37;;;;;;;1.23;0.80;;;14.60;99.90;;;;;;5051523;28;20473;-75
2022/11/01 07:36:05;;;;;;;2.20;0.60;;;14.80;99.90;;;;;;5050586;28;20464;-76
2022/11/01 07:38:32;;;;;;;0.80;0.63;;;14.90;99.90;;;;;;5051570;28;20476;-76
2022/11/01 07:40:59;;;;;;;0.60;0.60;;;14.90;99.90;;;;;;5051181;28;20978;-76
2022/11/01 07:43:26;;;;;;;1.43;0.70;;;14.90;99.90;;;;;;5051401;28;20818;-75
2022/11/01 07:45:53;;;;;;;2.20;0.83;;;14.90;99.90;;;;;;5050698;28;20492;-76
2022/11/01 07:48:21;;;;;;;0.50;0.30;;;15.00;99.90;;;;;;5051344;28;20520;-76
2022/11/01 07:50:48;;;;;;;0.50;0.40;;;15.60;99.90;;;;;;5051311;28;20514;-74
2022/11/01 07:53:17;;;;;;;1.13;1.03;;;16.50;99.90;;;;;;5051155;28;20429;-75
2022/11/01 07:55:45;;;;;;;3.47;0.53;;;17.10;99.90;;;;;;5050969;28;20444;-78
2022/11/01 07:58:13;;;;;;;0.70;0.57;;;17.40;99.90;;;;;;5051835;28;20457;-76
2022/11/01 08:00:40;;;;;;;0.50;0.40;;;17.70;99.90;;;;;;5051188;28;20872;-76
2022/11/01 08:03:09;;;;;;;0.50;0.40;;;18.00;99.90;;;;;;5050700;28;20465;-76
2022/11/01 08:05:38;;;;;;;2.30;0.80;;;18.50;99.90;;;;;;5051534;28;20441;-75
2022/11/01 08:08:06;;;;;;;0.60;0.40;;;19.10;99.90;;;;;;5052222;28;20476;-76
2022/11/01 08:10:33;;;;;;;1.43;0.80;;;19.40;99.90;;;;;;5051085;28;20437;-76
2022/11/01 08:13:02;;;;;;;0.90;0.70;;;19.70;99.90;;;;;;5050932;28;20547;-76
2022/11/01 08:15:29;;;;;;;0.70;0.53;;;19.40;99.90;;;;;;5051035;28;20468;-76
2022/11/01 08:17:56;;;;;;;0.60;0.40;;;19.90;99.90;;;;;;5050669;28;20473;-76
2022/11/01 08:20:25;;;;;;;0.57;0.47;;;20.10;99.90;;;;;;5050885;28;20475;-76
2022/11/01 08:22:53;;;;;;;6.83;0.63;;;19.90;99.00;;;;;;5050348;28;20480;-76
2022/11/01 08:25:21;;;;;;;0.50;0.40;;;19.60;99.80;;;;;;5050832;28;20460;-76
2022/11/01 08:27:47;;;;;;;0.60;0.53;;;19.70;98.80;;;;;;5053710;28;20536;-76
2022/11/01 08:30:15;;;;;;;0.50;0.40;;;19.00;99.80;;;;;;5054822;28;20999;-76
2022/11/01 08:32:43;;;;;;;0.50;0.40;;;18.90;99.90;;;;;;5054683;28;20448;-76
2022/11/01 08:35:11;;;;;;;0.60;0.40;;;19.20;99.90;;;;;;5054433;28;20453;-76
2022/11/01 08:37:38;;;;;;;0.73;0.73;;;18.90;99.90;;;;;;5054366;28;20551;-73
2022/11/01 08:40:08;;;;;;;0.80;0.60;;;18.80;99.90;;;;;;5054448;28;20476;-77
2022/11/01 08:42:38;;;;;;;0.90;0.57;;;19.20;99.90;;;;;;5054419;28;20925;-76
2022/11/01 08:45:05;;;;;;;0.50;0.40;;;19.00;99.90;;;;;;5054392;28;20922;-76
2022/11/01 08:47:32;;;;;;;2.80;0.50;;;19.30;98.60;;;;;;5054225;28;21030;-77
2022/11/01 08:49:59;;;;;;;1.10;0.50;;;19.00;97.60;;;;;;5054401;28;20860;-76
2022/11/01 08:52:26;;;;;;;0.83;0.50;;;18.80;97.50;;;;;;5054813;28;20825;-76
2022/11/01 08:54:53;;;;;;;1.03;0.73;;;19.30;96.70;;;;;;5053639;28;20792;-77
2022/11/01 08:57:22;;;;;;;0.57;0.47;;;19.70;95.10;;;;;;5054376;28;20523;-76
2022/11/01 08:59:49;;;;;;;0.80;0.53;;;19.50;94.30;;;;;;5054463;28;20455;-76
2022/11/01 09:02:16;;;;;;;1.10;1.10;;;18.70;93.70;;;;;;5053879;28;20465;-75
2022/11/01 09:04:43;;;;;;;0.67;0.57;;;18.10;95.20;;;;;;5054619;28;20469;-75
2022/11/01 09:07:10;;;;;;;3.03;1.00;;;17.70;97.10;;;;;;5054316;28;20864;-76
2022/11/01 09:09:37;;;;;;;2.60;0.73;;;17.40;97.40;;;;;;5053805;28;20469;-76
2022/11/01 09:12:04;;;;;;;3.23;0.73;;;17.00;99.90;;;;;;5054272;28;20464;-76
2022/11/01 09:14:33;;;;;;;1.67;0.80;;;17.20;99.90;;;;;;5053445;28;20468;-76
2022/11/01 09:17:00;;;;;;;3.43;1.43;;;17.10;99.90;;;;;;5053830;28;20503;-77
2022/11/01 09:19:27;;;;;;;2.50;0.80;;;17.10;99.90;;;;;;5060827;28;20532;-76
2022/11/01 09:21:54;;;;;;;1.43;0.70;;;16.70;99.90;;;;;;5058861;28;20496;-77
2022/11/01 09:24:20;;;;;;;2.50;0.87;;;16.50;99.90;;;;;;5057900;28;20476;-76
2022/11/01 09:26:47;;;;;;;0.77;0.70;;;16.40;99.90;;;;;;5063434;28;20461;-77
2022/11/01 09:29:16;;;;;;;0.93;0.50;;;16.40;99.90;;;;;;5065760;28;20450;-77
2022/11/01 09:31:44;;;;;;;2.10;0.70;;;16.30;99.90;;;;;;5071420;28;20818;-77
2022/11/01 09:34:11;;;;;;;2.07;0.73;;;16.30;99.90;;;;;;5072384;28;20444;-76
2022/11/01 09:36:38;;;;;;;2.53;0.67;;;16.20;99.90;;;;;;5033608;28;20470;-77
2022/11/01 09:39:05;;;;;;;2.10;0.90;;;16.30;99.90;;;;;;5057693;28;20468;-78
2022/11/01 09:41:35;;;;;;;4.10;1.80;;;16.30;99.90;;;;;;5053276;28;20811;-76
2022/11/01 09:44:04;;;;;;;3.13;1.17;;;16.20;99.90;;;;;;5052680;28;20552;-76
2022/11/01 09:46:37;;;;;;;0.80;0.70;;;16.20;99.90;;;;;;5063910;28;20531;-77
2022/11/01 09:49:07;;;;;;;1.33;0.63;;;16.30;99.90;;;;;;5053108;28;20579;-77
2022/11/01 09:51:34;;;;;;;0.83;0.60;;;16.60;99.90;;;;;;5051148;28;20440;-76
2022/11/01 09:54:03;;;;;;;1.20;0.80;;;16.70;99.90;;;;;;5051903;28;20436;-76
2022/11/01 09:56:35;;;;;;;1.57;1.00;;;16.60;99.90;;;;;;5052810;28;20504;-77
2022/11/01 09:59:11;;;;;;;0.60;0.60;;;16.60;99.90;;;;;;5053868;28;20515;-77
2022/11/01 10:01:45;;;;;;;9.97;1.27;;;16.50;99.90;;;;;;5056648;28;21057;-77
2022/11/01 10:04:28;;;;;;;24.73;1.57;;;16.30;99.90;;;;;;5064397;28;20533;-77
2022/11/01 10:07:02;;;;;;;1.07;0.50;;;16.30;99.90;;;;;;5064403;28;20544;-76
2022/11/01 10:09:37;;;;;;;0.57;0.50;;;16.30;99.90;;;;;;5049025;28;20529;-77
2022/11/01 10:12:16;;;;;;;3.00;1.20;;;16.50;99.90;;;;;;5052955;28;20815;-77
2022/11/01 10:14:59;;;;;;;0.60;0.40;;;16.30;99.90;;;;;;5053214;28;20456;-76
2022/11/01 10:17:47;;;;;;;0.70;0.53;;;16.20;99.90;;;;;;5063787;28;20475;-76
2022/11/01 10:20:16;;;;;;;1.70;0.47;;;16.50;99.90;;;;;;5053761;28;20434;-76
2022/11/01 10:22:47;;;;;;;7.90;1.17;;;16.40;99.90;;;;;;5061230;28;20465;-76
2022/11/01 10:25:20;;;;;;;2.30;0.50;;;16.40;99.90;;;;;;5041990;28;20507;-77
2022/11/01 10:27:53;;;;;;;1.70;0.80;;;16.50;99.90;;;;;;5037646;28;20500;-75
2022/11/01 10:30:21;;;;;;;0.50;0.40;;;16.70;99.90;;;;;;5032610;28;20521;-75
2022/11/01 10:32:53;;;;;;;0.60;0.50;;;16.90;99.90;;;;;;5044724;28;20429;-76
2022/11/01 10:35:25;;;;;;;0.50;0.40;;;17.20;99.90;;;;;;5052292;28;20435;-76
2022/11/01 10:37:57;;;;;;;0.70;0.50;;;17.50;99.90;;;;;;5049892;28;20460;-73
2022/11/01 10:40:28;;;;;;;3.23;0.67;;;18.00;99.90;;;;;;5054462;28;21197;-73
2022/11/01 10:43:06;;;;;;;5.07;0.60;;;18.00;99.90;;;;;;5053869;28;20475;-74
2022/11/01 10:45:33;;;;;;;5.90;1.00;;;18.30;99.90;;;;;;5055521;28;20437;-73
2022/11/01 10:48:00;;;;;;;7.57;0.60;;;18.20;99.90;;;;;;5036802;28;20474;-76
2022/11/01 10:50:30;;;;;;;1.00;0.57;;;18.00;99.90;;;;;;5031899;28;20438;-76
2022/11/01 10:53:00;;;;;;;2.40;1.77;;;18.00;99.90;;;;;;5031805;28;20430;-77
2022/11/01 10:55:30;;;;;;;0.77;0.70;;;17.60;99.90;;;;;;5031656;28;20438;-76
2022/11/01 10:58:02;;;;;;;7.40;1.50;;;17.60;99.90;;;;;;5032192;28;20450;-76
2022/11/01 11:00:32;;;;;;;0.70;0.70;;;17.40;99.90;;;;;;5032313;28;20422;-77
2022/11/01 11:03:06;;;;;;;14.43;0.90;;;17.30;99.90;;;;;;5031950;28;20474;-76
2022/11/01 11:05:34;;;;;;;4.93;0.70;;;17.20;99.90;;;;;;5031765;28;20521;-77
2022/11/01 11:08:06;;;;;;;2.60;0.70;;;17.20;99.90;;;;;;5031714;28;20930;-76
2022/11/01 11:10:33;;;;;;;1.37;0.50;;;17.20;99.90;;;;;;5032419;28;20445;-76
2022/11/01 11:13:05;;;;;;;2.20;1.37;;;17.20;99.90;;;;;;5031817;28;20437;-76
2022/11/01 11:15:44;;;;;;;1.33;0.63;;;17.40;99.90;;;;;;5031339;28;20593;-76
2022/11/01 11:18:19;;;;;;;2.33;1.27;;;17.40;99.90;;;;;;5031756;28;20425;-76
2022/11/01 11:20:53;;;;;;;2.60;0.93;;;17.30;99.90;;;;;;5032223;28;20433;-76
2022/11/01 11:23:22;;;;;;;0.80;0.50;;;17.10;99.90;;;;;;5031530;28;20469;-76
2022/11/01 11:25:50;;;;;;;1.33;1.23;;;17.30;99.90;;;;;;5031594;28;20438;-76
2022/11/01 11:28:30;;;;;;;0.80;0.80;;;17.30;99.90;;;;;;5031334;28;20438;-77
2022/11/01 11:31:12;;;;;;;2.60;1.30;;;17.40;99.90;;;;;;5032789;28;20457;-78
2022/11/01 11:33:39;;;;;;;0.80;0.50;;;17.80;99.90;;;;;;5031051;28;20418;-76
2022/11/01 11:36:08;;;;;;;1.57;0.47;;;17.70;99.90;;;;;;5031294;28;20457;-76
2022/11/01 11:38:43;;;;;;;1.53;0.80;;;17.80;99.90;;;;;;5031138;28;20430;-76
2022/11/01 11:41:12;;;;;;;13.17;1.97;;;17.70;99.90;;;;;;5031305;28;20494;-77
2022/11/01 11:43:41;;;;;;;0.60;0.50;;;17.40;99.90;;;;;;5031640;28;20473;-76
2022/11/01 11:46:17;;;;;;;0.80;0.73;;;17.20;99.90;;;;;;5031338;28;20460;-77
2022/11/01 11:48:49;;;;;;;0.70;0.60;;;17.30;99.90;;;;;;5031316;28;20528;-76
2022/11/01 11:51:19;;;;;;;1.13;0.50;;;17.30;99.90;;;;;;5031499;28;20954;-76
2022/11/01 11:54:08;;;;;;;4.60;1.70;;;17.10;99.90;;;;;;5031103;28;20433;-76
2022/11/01 11:56:35;;;;;;;4.43;0.90;;;17.00;99.90;;;;;;5031092;28;20986;-76
2022/11/01 11:59:07;;;;;;;0.70;0.67;;;16.90;99.90;;;;;;5030868;28;21004;-76
2022/11/01 12:01:33;;;;;;;15.30;1.57;;;16.90;99.90;;;;;;5032271;28;20839;-76
2022/11/01 12:04:08;;;;;;;1.53;0.87;;;16.80;99.90;;;;;;5034790;28;20441;-76
2022/11/01 12:06:41;;;;;;;6.43;0.93;;;16.60;99.90;;;;;;5035138;28;20769;-74
2022/11/01 12:09:43;;;;;;;1.03;0.57;;;16.50;99.90;;;;;;5035370;28;20477;-77
2022/11/01 12:12:17;;;;;;;1.00;0.60;;;16.50;99.90;;;;;;5036101;28;20465;-78
2022/11/01 12:14:43;;;;;;;1.20;0.70;;;16.60;99.90;;;;;;5034796;28;20448;-76
2022/11/01 12:17:32;;;;;;;0.70;0.60;;;16.70;99.90;;;;;;5034826;28;20846;-77
2022/11/01 12:20:02;;;;;;;1.03;0.83;;;16.70;99.90;;;;;;5035421;28;20864;-75
2022/11/01 12:22:34;;;;;;;4.77;1.57;;;16.70;99.90;;;;;;5034907;28;20864;-77
2022/11/01 12:25:06;;;;;;;0.87;0.43;;;16.60;99.90;;;;;;5034287;28;20441;-77
2022/11/01 12:27:35;;;;;;;1.47;0.90;;;16.60;99.90;;;;;;5034827;28;21037;-76
2022/11/01 12:30:09;;;;;;;0.50;0.30;;;16.60;99.90;;;;;;5035298;28;20760;-76
2022/11/01 12:32:46;;;;;;;0.50;0.30;;;16.60;99.90;;;;;;5034909;28;20430;-76
2022/11/01 12:35:21;;;;;;;4.83;0.70;;;16.50;99.90;;;;;;5034695;28;20422;-76
2022/11/01 12:37:59;;;;;;;0.60;0.43;;;16.40;99.90;;;;;;5034423;28;20842;-76
2022/11/01 12:40:29;;;;;;;0.60;0.40;;;16.40;99.90;;;;;;5035031;28;20501;-77
2022/11/01 12:43:00;;;;;;;3.90;1.33;;;16.50;99.90;;;;;;5034552;28;20590;-76
2022/11/01 12:45:32;;;;;;;0.60;0.40;;;16.50;99.90;;;;;;5034176;28;20437;-77
2022/11/01 12:48:03;;;;;;;3.60;0.80;;;16.50;99.90;;;;;;5034332;28;20458;-76
2022/11/01 12:50:36;;;;;;;10.43;0.80;;;16.50;99.90;;;;;;5034834;28;20426;-76
2022/11/01 12:53:10;;;;;;;0.70;0.60;;;16.60;99.90;;;;;;5034859;28;20418;-77
2022/11/01 12:55:39;;;;;;;29.83;1.93;;;16.60;99.90;;;;;;5034234;28;20849;-74
2022/11/01 12:58:11;;;;;;;1.43;0.50;;;16.70;99.90;;;;;;5034316;28;20516;-76
2022/11/01 13:00:51;;;;;;;0.50;0.40;;;16.80;99.90;;;;;;5034300;28;20450;-77
2022/11/01 13:03:31;;;;;;;1.47;0.60;;;17.10;99.90;;;;;;5034225;28;20943;-76
2022/11/01 13:06:06;;;;;;;9.30;1.33;;;17.30;99.90;;;;;;5033800;28;20453;-76